createdAt,value
2023-03-29T00:03:49.927Z,2.33
2023-03-29T00:09:51.523Z,2.30
2023-03-29T00:15:54.084Z,2.43
2023-03-29T00:21:56.329Z,2.38
2023-03-29T00:27:57.789Z,2.65
2023-03-29T00:33:59.338Z,2.63
2023-03-29T00:40:07.696Z,2.47
2023-03-29T00:46:09.121Z,2.30
2023-03-29T00:52:13.131Z,2.10
2023-03-29T00:58:16.053Z,2.08
2023-03-29T01:04:20.107Z,2.00
2023-03-29T01:10:24.655Z,2.00
2023-03-29T01:16:28.588Z,2.50
2023-03-29T01:22:38.538Z,2.22
2023-03-29T01:28:46.902Z,2.00
2023-03-29T01:35:10.265Z,2.53
2023-03-29T01:41:12.905Z,2.20
2023-03-29T01:47:20.443Z,2.00
2023-03-29T01:53:26.513Z,2.05
2023-03-29T01:59:29.523Z,1.83
2023-03-29T02:05:31.947Z,2.10
2023-03-29T02:11:34.736Z,1.85
2023-03-29T02:17:36.537Z,1.93
2023-03-29T02:23:45.409Z,1.80
2023-03-29T02:29:47.783Z,1.70
2023-03-29T02:35:56.624Z,1.50
2023-03-29T02:41:58.607Z,1.70
2023-03-29T02:48:03.143Z,1.50
2023-03-29T02:54:18.392Z,1.88
2023-03-29T03:00:23.119Z,1.50
2023-03-29T03:06:25.347Z,1.63
2023-03-29T03:12:27.143Z,1.83
2023-03-29T03:18:29.232Z,2.03
2023-03-29T03:24:32.505Z,1.73
2023-03-29T03:30:34.624Z,1.67
2023-03-29T03:37:02.139Z,1.93
2023-03-29T03:43:06.898Z,1.80
2023-03-29T03:49:08.594Z,1.53
2023-03-29T03:55:14.390Z,1.50
2023-03-29T04:01:20.035Z,1.73
2023-03-29T04:07:34.333Z,1.80
2023-03-29T04:14:05.333Z,1.63
2023-03-29T04:20:26.083Z,1.73
2023-03-29T04:26:27.903Z,1.52
2023-03-29T04:32:41.733Z,1.92
2023-03-29T04:38:47.820Z,1.90
2023-03-29T04:44:50.830Z,2.10
2023-03-29T04:51:00.578Z,1.50
2023-03-29T04:57:02.709Z,2.10
2023-03-29T05:03:14.542Z,1.63
2023-03-29T05:09:35.637Z,1.70
2023-03-29T05:15:41.153Z,1.80
2023-03-29T05:21:45.109Z,1.80
2023-03-29T05:27:49.473Z,2.10
2023-03-29T05:33:51.932Z,2.20
2023-03-29T05:39:54.859Z,1.90
2023-03-29T05:46:09.020Z,2.20
2023-03-29T05:52:14.707Z,2.00
2023-03-29T05:58:20.506Z,2.58
2023-03-29T06:04:24.515Z,2.65
2023-03-29T06:10:46.342Z,2.97
2023-03-29T06:17:10.691Z,3.00
2023-03-29T06:23:12.801Z,2.97
2023-03-29T06:29:14.690Z,3.10
2023-03-29T06:35:17.257Z,2.97
2023-03-29T06:41:24.090Z,3.50
2023-03-29T06:47:40.937Z,3.10
2023-03-29T06:53:42.516Z,4.00
2023-03-29T06:59:44.163Z,3.40
2023-03-29T07:06:02.690Z,3.63
2023-03-29T07:12:05.440Z,3.50
2023-03-29T07:18:08.062Z,3.88
2023-03-29T07:24:10.154Z,3.87
2023-03-29T07:30:14.088Z,4.13
2023-03-29T07:36:16.573Z,3.97
2023-03-29T07:42:18.209Z,3.60
2023-03-29T07:48:20.165Z,3.85
2023-03-29T07:54:26.184Z,4.20
2023-03-29T08:00:35.851Z,4.10
2023-03-29T08:07:03.901Z,3.85
2023-03-29T08:13:25.363Z,3.90
2023-03-29T08:19:50.915Z,4.03
2023-03-29T08:25:56.144Z,4.00
2023-03-29T08:31:58.246Z,4.30
2023-03-29T08:38:00.053Z,4.40
2023-03-29T08:44:11.333Z,4.67
2023-03-29T08:50:33.527Z,4.68
2023-03-29T08:56:37.604Z,4.30
2023-03-29T09:02:49.532Z,4.55
2023-03-29T09:08:52.197Z,3.88
2023-03-29T09:15:15.413Z,4.83
2023-03-29T09:21:39.176Z,4.50
2023-03-29T09:27:59.640Z,4.03
2023-03-29T09:34:15.879Z,4.20
2023-03-29T09:40:39.659Z,4.40
2023-03-29T09:46:55.810Z,4.00
2023-03-29T09:53:00.070Z,4.30
2023-03-29T09:59:04.200Z,3.90
2023-03-29T10:05:07.307Z,4.13
2023-03-29T10:11:17.424Z,3.90
2023-03-29T10:17:23.417Z,3.50
2023-03-29T10:23:29.593Z,3.30
2023-03-29T10:29:39.092Z,3.40
2023-03-29T10:35:41.831Z,3.95
2023-03-29T10:41:44.728Z,4.00
2023-03-29T10:47:47.942Z,3.73
2023-03-29T10:53:49.518Z,3.38
2023-03-29T11:00:06.933Z,3.17
2023-03-29T11:06:20.976Z,3.60
2023-03-29T11:12:29.866Z,3.53
2023-03-29T11:18:42.795Z,3.40
2023-03-29T11:24:50.468Z,3.75
2023-03-29T11:31:18.005Z,3.80
2023-03-29T11:37:32.866Z,3.58
2023-03-29T11:43:39.855Z,3.25
2023-03-29T11:49:44.336Z,3.53
2023-03-29T11:55:46.740Z,3.08
2023-03-29T12:01:50.625Z,3.50
2023-03-29T12:07:54.894Z,3.25
2023-03-29T12:14:02.534Z,2.95
2023-03-29T12:20:13.348Z,3.27
2023-03-29T12:26:27.464Z,3.17
2023-03-29T12:32:34.929Z,3.37
2023-03-29T12:38:51.729Z,3.35
2023-03-29T12:45:19.931Z,3.55
2023-03-29T12:51:23.408Z,3.13
2023-03-29T12:57:42.049Z,3.60
2023-03-29T13:03:48.402Z,3.10
2023-03-29T13:09:51.355Z,3.10
2023-03-29T13:15:53.402Z,2.85
2023-03-29T13:22:19.256Z,3.10
2023-03-29T13:28:27.088Z,2.60
2023-03-29T13:34:47.531Z,2.80
2023-03-29T13:40:59.386Z,3.05
2023-03-29T13:47:02.872Z,2.60
2023-03-29T13:53:20.828Z,2.87
2023-03-29T13:59:27.718Z,2.85
2023-03-29T14:05:31.657Z,2.60
2023-03-29T14:11:33.621Z,2.47
2023-03-29T14:17:36.270Z,2.50
2023-03-29T14:23:38.193Z,2.57
2023-03-29T14:29:39.749Z,2.80
2023-03-29T14:35:41.667Z,2.90
2023-03-29T14:41:50.690Z,3.00
2023-03-29T14:47:52.652Z,2.60
2023-03-29T14:53:54.706Z,2.53
2023-03-29T15:00:00.589Z,2.78
2023-03-29T15:06:04.212Z,2.47
2023-03-29T15:12:06.097Z,2.30
2023-03-29T15:18:08.127Z,2.40
2023-03-29T15:24:21.161Z,2.57
2023-03-29T15:30:31.368Z,2.10
2023-03-29T15:36:32.809Z,2.40
2023-03-29T15:42:35.505Z,2.10
2023-03-29T15:48:37.465Z,2.15
2023-03-29T15:54:38.966Z,2.00
2023-03-29T16:00:43.444Z,2.33
2023-03-29T16:06:46.748Z,1.73
2023-03-29T16:12:48.147Z,1.80
2023-03-29T16:18:49.813Z,2.10
2023-03-29T16:24:51.381Z,2.40
2023-03-29T16:30:52.819Z,2.40
2023-03-29T16:36:54.298Z,2.43
2023-03-29T16:42:55.694Z,2.60
2023-03-29T16:48:58.013Z,2.78
2023-03-29T16:54:59.401Z,3.23
2023-03-29T17:01:11.579Z,3.00
2023-03-29T17:07:13.070Z,3.17
2023-03-29T17:13:14.595Z,3.38
2023-03-29T17:19:16.190Z,3.63
2023-03-29T17:25:17.850Z,3.07
2023-03-29T17:31:19.509Z,2.97
2023-03-29T17:37:21.352Z,3.07
2023-03-29T17:43:23.240Z,2.90
2023-03-29T17:49:24.773Z,3.17
2023-03-29T17:55:26.442Z,3.30
2023-03-29T18:01:28.129Z,3.05
2023-03-29T18:07:30.345Z,3.73
2023-03-29T18:13:31.908Z,4.25
2023-03-29T18:19:33.447Z,3.80
2023-03-29T18:25:34.972Z,3.60
2023-03-29T18:31:36.719Z,3.95
2023-03-29T18:37:38.695Z,2.87
2023-03-29T18:43:41.277Z,2.30
2023-03-29T18:49:43.209Z,2.20
2023-03-29T18:55:45.292Z,2.00
2023-03-29T19:01:47.115Z,1.98
2023-03-29T19:07:48.708Z,2.17
2023-03-29T19:13:52.219Z,2.10
2023-03-29T19:19:56.489Z,2.10
2023-03-29T19:26:00.672Z,2.50
2023-03-29T19:32:02.859Z,2.20
2023-03-29T19:38:04.445Z,2.80
2023-03-29T19:44:06.378Z,2.80
2023-03-29T19:50:08.277Z,2.88
2023-03-29T19:56:10.986Z,2.90
2023-03-29T20:02:12.887Z,2.95
2023-03-29T20:08:14.554Z,2.83
2023-03-29T20:14:16.094Z,2.70
2023-03-29T20:20:17.688Z,2.80
2023-03-29T20:26:19.220Z,2.53
2023-03-29T20:32:21.040Z,2.33
2023-03-29T20:38:22.794Z,2.60
2023-03-29T20:44:28.232Z,2.80
2023-03-29T20:50:29.921Z,3.00
2023-03-29T20:56:32.309Z,2.67
2023-03-29T21:02:33.935Z,2.58
2023-03-29T21:08:35.456Z,2.30
2023-03-29T21:14:37.816Z,2.80
2023-03-29T21:20:39.274Z,2.47
2023-03-29T21:26:41.090Z,2.43
2023-03-29T21:32:42.605Z,2.40
2023-03-29T21:38:44.167Z,2.40
2023-03-29T21:44:45.798Z,2.30
2023-03-29T21:50:50.986Z,2.40
2023-03-29T21:56:52.590Z,2.50
2023-03-29T22:02:54.203Z,2.63
2023-03-29T22:08:55.757Z,2.60
2023-03-29T22:14:57.167Z,2.47
2023-03-29T22:20:58.578Z,2.63
2023-03-29T22:27:00.100Z,3.00
2023-03-29T22:33:01.635Z,2.97
2023-03-29T22:39:03.908Z,2.60
2023-03-29T22:45:06.390Z,2.60
2023-03-29T22:51:08.166Z,2.40
2023-03-29T22:57:09.746Z,2.43
2023-03-29T23:03:11.313Z,2.40
2023-03-29T23:09:13.963Z,2.83
2023-03-29T23:15:17.377Z,2.70
2023-03-29T23:21:18.825Z,2.78
2023-03-29T23:27:20.219Z,2.70
2023-03-29T23:33:21.905Z,2.80
2023-03-29T23:39:23.623Z,2.80
2023-03-29T23:45:27.462Z,3.05
2023-03-29T23:51:29.004Z,2.90
2023-03-29T23:57:30.560Z,2.70
